ZTL Weather Bulletin
Prepared:4/29/2016 7:20 PM by: CW valid for 9 hours
FOR ATC PLANNING PURPOSES
A weak stationary front has stalled over N ZTL. Expect VFR conditions under SCT/BKN cirrus clouds over most of ZTL, and MVFR conditons in AL as a line of thunderstorms moves into the airspace from the west. Surface winds will be southwest to northwest at 3-8kts. Winds will be variable and gusty near convection. Flight Hazards outside convection: Are not expected. Altimeters are at or above 29.92ins over most of ZTL, but will drop below 29.92ins over SW ZTL over night. Ceilings below 050 are expected in areas 5 and 6.

Restricted Area Convection: R2102...Until 04z. R3002...None. R3004...None.
FTUS31 KATL 300333 AAA
KATL 300330Z 3004/0106 28003KT P6SM BKN250
     FM300900 15003KT P6SM BKN250
     FM301500 17006KT P6SM SCT035
     FM301800 19010KT P6SM BKN050 PROB30 3018/3024 4SM -TSRA BR
      BKN030CB
Remark: NONE.
FTUS80 KCLT 300257 AAA
KCLT 300256Z 3003/3024 VRB03KT P6SM BKN250
     FM301300 06006KT P6SM SCT045 BKN250
     FM301500 08006KT P6SM BKN025 PROB30 3018/3020 2SM -SHRA
      OVC015
     FM302000 12006KT P6SM VCSH BKN025 PROB30 3020/3024 2SM
      -TSRA
      OVC015CB

Remark: NONE.
12-18 Hour Forecast Map
Weather Map
Convective Gate Forecast
Convective Gate Forecast
Icing Gate Forecast Icing Gate Forecast

ATL products

TDA
TRACON BRF

Convection Gate FCST

Vertical Wind Profile (RAP)

Icing Gate FCST
Atlanta Observations
 

CLT products

TDA

TRACON BRF

Convection Gate FCST

Vertical Wind Profile (RAP)

Icing Gate FCST
Charlotte Observations



USA.gov is the U.S. government's official web portal to all federal, state and local government web resources and services.